sensor_id;sensor_type;location;lat;lon;timestamp;P1;durP1;ratioP1;P2;durP2;ratioP2
47603;SDS011;33326;51.116;6.900;2023-04-15T00:02:27;6.63;;;4.10;;
47603;SDS011;33326;51.116;6.900;2023-04-15T00:07:29;10.35;;;4.18;;
47603;SDS011;33326;51.116;6.900;2023-04-15T00:12:32;7.78;;;3.83;;
47603;SDS011;33326;51.116;6.900;2023-04-15T00:17:34;6.90;;;4.03;;
47603;SDS011;33326;51.116;6.900;2023-04-15T00:22:38;9.90;;;4.07;;
47603;SDS011;33326;51.116;6.900;2023-04-15T00:27:41;8.50;;;3.97;;
47603;SDS011;33326;51.116;6.900;2023-04-15T00:32:43;8.50;;;4.22;;
47603;SDS011;33326;51.116;6.900;2023-04-15T00:37:44;9.07;;;4.10;;
47603;SDS011;33326;51.116;6.900;2023-04-15T00:42:48;9.65;;;4.50;;
47603;SDS011;33326;51.116;6.900;2023-04-15T00:47:49;11.23;;;4.50;;
47603;SDS011;33326;51.116;6.900;2023-04-15T00:52:51;10.27;;;4.70;;
47603;SDS011;33326;51.116;6.900;2023-04-15T00:57:55;10.23;;;4.57;;
47603;SDS011;33326;51.116;6.900;2023-04-15T01:02:57;10.45;;;5.07;;
47603;SDS011;33326;51.116;6.900;2023-04-15T01:07:59;9.70;;;4.93;;
47603;SDS011;33326;51.116;6.900;2023-04-15T01:13:02;8.10;;;4.63;;
47603;SDS011;33326;51.116;6.900;2023-04-15T01:18:05;8.40;;;4.70;;
47603;SDS011;33326;51.116;6.900;2023-04-15T01:23:07;8.30;;;4.40;;
47603;SDS011;33326;51.116;6.900;2023-04-15T01:28:12;8.07;;;4.20;;
47603;SDS011;33326;51.116;6.900;2023-04-15T01:33:14;12.63;;;5.47;;
47603;SDS011;33326;51.116;6.900;2023-04-15T01:38:16;8.25;;;4.13;;
47603;SDS011;33326;51.116;6.900;2023-04-15T01:43:20;7.63;;;4.38;;
47603;SDS011;33326;51.116;6.900;2023-04-15T01:48:22;8.10;;;4.40;;
47603;SDS011;33326;51.116;6.900;2023-04-15T01:53:24;8.30;;;4.68;;
47603;SDS011;33326;51.116;6.900;2023-04-15T01:58:27;6.97;;;4.25;;
47603;SDS011;33326;51.116;6.900;2023-04-15T02:03:30;8.95;;;4.75;;
47603;SDS011;33326;51.116;6.900;2023-04-15T02:08:32;9.05;;;4.70;;
47603;SDS011;33326;51.116;6.900;2023-04-15T02:13:35;10.80;;;4.75;;
47603;SDS011;33326;51.116;6.900;2023-04-15T02:18:37;10.10;;;4.78;;
47603;SDS011;33326;51.116;6.900;2023-04-15T02:23:38;6.85;;;5.18;;
47603;SDS011;33326;51.116;6.900;2023-04-15T02:28:42;11.15;;;5.28;;
47603;SDS011;33326;51.116;6.900;2023-04-15T02:33:44;7.57;;;4.72;;
47603;SDS011;33326;51.116;6.900;2023-04-15T02:38:46;9.55;;;5.25;;
47603;SDS011;33326;51.116;6.900;2023-04-15T02:43:50;8.80;;;4.72;;
47603;SDS011;33326;51.116;6.900;2023-04-15T02:48:52;7.15;;;4.43;;
47603;SDS011;33326;51.116;6.900;2023-04-15T02:53:56;9.70;;;5.10;;
47603;SDS011;33326;51.116;6.900;2023-04-15T02:58:59;9.23;;;4.82;;
47603;SDS011;33326;51.116;6.900;2023-04-15T03:04:01;9.05;;;5.10;;
47603;SDS011;33326;51.116;6.900;2023-04-15T03:09:03;10.23;;;5.18;;
47603;SDS011;33326;51.116;6.900;2023-04-15T03:14:10;10.88;;;5.10;;
47603;SDS011;33326;51.116;6.900;2023-04-15T03:19:16;8.02;;;4.72;;
47603;SDS011;33326;51.116;6.900;2023-04-15T03:24:17;11.82;;;4.90;;
47603;SDS011;33326;51.116;6.900;2023-04-15T03:29:22;7.80;;;5.05;;
47603;SDS011;33326;51.116;6.900;2023-04-15T03:34:24;9.13;;;5.13;;
47603;SDS011;33326;51.116;6.900;2023-04-15T03:39:25;9.52;;;5.00;;
47603;SDS011;33326;51.116;6.900;2023-04-15T03:44:28;9.70;;;5.30;;
47603;SDS011;33326;51.116;6.900;2023-04-15T03:49:31;7.32;;;5.15;;
47603;SDS011;33326;51.116;6.900;2023-04-15T03:54:33;9.75;;;5.13;;
47603;SDS011;33326;51.116;6.900;2023-04-15T03:59:37;11.82;;;5.25;;
47603;SDS011;33326;51.116;6.900;2023-04-15T04:04:39;9.90;;;5.30;;
47603;SDS011;33326;51.116;6.900;2023-04-15T04:09:41;10.30;;;5.05;;
47603;SDS011;33326;51.116;6.900;2023-04-15T04:14:44;11.35;;;5.00;;
47603;SDS011;33326;51.116;6.900;2023-04-15T04:19:46;11.57;;;4.90;;
47603;SDS011;33326;51.116;6.900;2023-04-15T04:24:48;8.10;;;5.20;;
47603;SDS011;33326;51.116;6.900;2023-04-15T04:29:51;11.52;;;5.10;;
47603;SDS011;33326;51.116;6.900;2023-04-15T04:34:53;9.27;;;5.80;;
47603;SDS011;33326;51.116;6.900;2023-04-15T04:39:55;11.57;;;5.28;;
47603;SDS011;33326;51.116;6.900;2023-04-15T04:44:58;11.20;;;5.45;;
47603;SDS011;33326;51.116;6.900;2023-04-15T04:50:00;8.75;;;5.13;;
47603;SDS011;33326;51.116;6.900;2023-04-15T04:55:02;10.57;;;4.78;;
47603;SDS011;33326;51.116;6.900;2023-04-15T05:00:07;9.77;;;5.50;;
47603;SDS011;33326;51.116;6.900;2023-04-15T05:05:11;7.70;;;5.03;;
47603;SDS011;33326;51.116;6.900;2023-04-15T05:10:14;10.25;;;4.80;;
47603;SDS011;33326;51.116;6.900;2023-04-15T05:15:18;11.23;;;5.78;;
47603;SDS011;33326;51.116;6.900;2023-04-15T05:20:20;10.95;;;5.85;;
47603;SDS011;33326;51.116;6.900;2023-04-15T05:25:22;7.07;;;4.97;;
47603;SDS011;33326;51.116;6.900;2023-04-15T05:30:25;9.40;;;5.53;;
47603;SDS011;33326;51.116;6.900;2023-04-15T05:35:27;11.23;;;5.72;;
47603;SDS011;33326;51.116;6.900;2023-04-15T05:40:29;10.02;;;5.45;;
47603;SDS011;33326;51.116;6.900;2023-04-15T05:45:33;9.07;;;5.75;;
47603;SDS011;33326;51.116;6.900;2023-04-15T05:50:34;8.90;;;5.97;;
47603;SDS011;33326;51.116;6.900;2023-04-15T05:55:36;13.07;;;6.03;;
47603;SDS011;33326;51.116;6.900;2023-04-15T06:00:39;8.55;;;5.45;;
47603;SDS011;33326;51.116;6.900;2023-04-15T06:05:41;12.27;;;6.40;;
47603;SDS011;33326;51.116;6.900;2023-04-15T06:10:44;10.95;;;6.43;;
47603;SDS011;33326;51.116;6.900;2023-04-15T06:15:47;12.60;;;7.07;;
47603;SDS011;33326;51.116;6.900;2023-04-15T06:20:49;13.70;;;6.57;;
47603;SDS011;33326;51.116;6.900;2023-04-15T06:25:51;13.23;;;7.50;;
47603;SDS011;33326;51.116;6.900;2023-04-15T06:30:54;10.93;;;7.82;;
47603;SDS011;33326;51.116;6.900;2023-04-15T06:35:56;11.77;;;7.82;;
47603;SDS011;33326;51.116;6.900;2023-04-15T06:40:58;12.45;;;7.43;;
47603;SDS011;33326;51.116;6.900;2023-04-15T06:46:01;13.73;;;8.55;;
47603;SDS011;33326;51.116;6.900;2023-04-15T06:51:03;15.98;;;8.93;;
47603;SDS011;33326;51.116;6.900;2023-04-15T06:56:06;14.98;;;9.80;;
47603;SDS011;33326;51.116;6.900;2023-04-15T07:01:09;16.80;;;9.55;;
47603;SDS011;33326;51.116;6.900;2023-04-15T07:06:13;15.02;;;9.20;;
47603;SDS011;33326;51.116;6.900;2023-04-15T07:11:15;10.43;;;6.82;;
47603;SDS011;33326;51.116;6.900;2023-04-15T07:16:19;10.48;;;6.25;;
47603;SDS011;33326;51.116;6.900;2023-04-15T07:21:21;8.15;;;5.90;;
47603;SDS011;33326;51.116;6.900;2023-04-15T07:26:25;9.57;;;6.25;;
47603;SDS011;33326;51.116;6.900;2023-04-15T07:31:28;11.15;;;5.88;;
47603;SDS011;33326;51.116;6.900;2023-04-15T07:36:30;9.95;;;5.25;;
47603;SDS011;33326;51.116;6.900;2023-04-15T07:41:32;7.47;;;4.80;;
47603;SDS011;33326;51.116;6.900;2023-04-15T07:46:35;7.88;;;5.40;;
47603;SDS011;33326;51.116;6.900;2023-04-15T07:51:37;9.35;;;5.68;;
47603;SDS011;33326;51.116;6.900;2023-04-15T07:56:39;7.72;;;5.20;;
47603;SDS011;33326;51.116;6.900;2023-04-15T08:01:42;7.30;;;4.88;;
47603;SDS011;33326;51.116;6.900;2023-04-15T08:06:44;6.63;;;4.28;;
47603;SDS011;33326;51.116;6.900;2023-04-15T08:11:48;5.05;;;3.83;;
47603;SDS011;33326;51.116;6.900;2023-04-15T08:16:52;6.45;;;3.53;;
47603;SDS011;33326;51.116;6.900;2023-04-15T08:21:53;6.30;;;3.38;;
47603;SDS011;33326;51.116;6.900;2023-04-15T08:26:56;5.13;;;3.22;;
47603;SDS011;33326;51.116;6.900;2023-04-15T08:32:01;3.35;;;2.58;;
47603;SDS011;33326;51.116;6.900;2023-04-15T08:37:03;3.33;;;2.70;;
47603;SDS011;33326;51.116;6.900;2023-04-15T08:42:06;6.60;;;3.10;;
47603;SDS011;33326;51.116;6.900;2023-04-15T08:52:21;4.80;;;3.63;;
47603;SDS011;33326;51.116;6.900;2023-04-15T08:57:26;6.50;;;3.63;;
47603;SDS011;33326;51.116;6.900;2023-04-15T09:02:30;6.93;;;4.32;;
47603;SDS011;33326;51.116;6.900;2023-04-15T09:07:32;6.05;;;4.03;;
47603;SDS011;33326;51.116;6.900;2023-04-15T09:12:35;6.85;;;4.07;;
47603;SDS011;33326;51.116;6.900;2023-04-15T09:17:42;6.30;;;4.50;;
47603;SDS011;33326;51.116;6.900;2023-04-15T09:22:45;8.02;;;4.45;;
47603;SDS011;33326;51.116;6.900;2023-04-15T09:27:48;5.22;;;4.05;;
47603;SDS011;33326;51.116;6.900;2023-04-15T09:32:53;8.82;;;4.82;;
47603;SDS011;33326;51.116;6.900;2023-04-15T09:38:01;6.68;;;4.90;;
47603;SDS011;33326;51.116;6.900;2023-04-15T09:43:05;8.02;;;4.60;;
47603;SDS011;33326;51.116;6.900;2023-04-15T09:48:16;8.73;;;4.50;;
47603;SDS011;33326;51.116;6.900;2023-04-15T09:53:20;9.00;;;4.40;;
47603;SDS011;33326;51.116;6.900;2023-04-15T09:58:23;7.32;;;4.40;;
47603;SDS011;33326;51.116;6.900;2023-04-15T10:03:28;7.05;;;4.32;;
47603;SDS011;33326;51.116;6.900;2023-04-15T10:08:31;5.50;;;4.00;;
47603;SDS011;33326;51.116;6.900;2023-04-15T10:13:34;5.03;;;3.72;;
47603;SDS011;33326;51.116;6.900;2023-04-15T10:18:39;4.15;;;3.75;;
47603;SDS011;33326;51.116;6.900;2023-04-15T10:23:44;5.70;;;4.15;;
47603;SDS011;33326;51.116;6.900;2023-04-15T10:28:46;5.47;;;4.35;;
47603;SDS011;33326;51.116;6.900;2023-04-15T10:33:49;6.03;;;4.65;;
47603;SDS011;33326;51.116;6.900;2023-04-15T10:38:52;3.95;;;3.25;;
47603;SDS011;33326;51.116;6.900;2023-04-15T10:43:54;4.90;;;3.90;;
47603;SDS011;33326;51.116;6.900;2023-04-15T10:49:05;4.07;;;3.33;;
47603;SDS011;33326;51.116;6.900;2023-04-15T10:54:11;5.00;;;4.40;;
47603;SDS011;33326;51.116;6.900;2023-04-15T10:59:14;5.95;;;4.45;;
47603;SDS011;33326;51.116;6.900;2023-04-15T11:09:53;3.72;;;3.22;;
47603;SDS011;33326;51.116;6.900;2023-04-15T11:14:56;3.10;;;2.80;;
47603;SDS011;33326;51.116;6.900;2023-04-15T11:19:59;4.50;;;3.28;;
47603;SDS011;33326;51.116;6.900;2023-04-15T11:25:01;9.23;;;4.30;;
47603;SDS011;33326;51.116;6.900;2023-04-15T11:30:15;7.30;;;5.80;;
47603;SDS011;33326;51.116;6.900;2023-04-15T11:35:23;6.03;;;5.43;;
47603;SDS011;33326;51.116;6.900;2023-04-15T11:40:25;6.78;;;5.60;;
47603;SDS011;33326;51.116;6.900;2023-04-15T11:45:29;8.02;;;6.05;;
47603;SDS011;33326;51.116;6.900;2023-04-15T11:50:33;6.80;;;5.03;;
47603;SDS011;33326;51.116;6.900;2023-04-15T11:55:42;16.98;;;5.43;;
47603;SDS011;33326;51.116;6.900;2023-04-15T12:00:46;5.20;;;4.70;;
47603;SDS011;33326;51.116;6.900;2023-04-15T12:06:13;4.03;;;3.63;;
47603;SDS011;33326;51.116;6.900;2023-04-15T12:11:17;5.05;;;3.50;;
47603;SDS011;33326;51.116;6.900;2023-04-15T12:16:20;5.47;;;3.55;;
47603;SDS011;33326;51.116;6.900;2023-04-15T12:21:24;4.53;;;3.65;;
47603;SDS011;33326;51.116;6.900;2023-04-15T12:26:28;5.63;;;3.80;;
47603;SDS011;33326;51.116;6.900;2023-04-15T12:31:31;5.13;;;3.80;;
47603;SDS011;33326;51.116;6.900;2023-04-15T12:36:37;6.40;;;3.78;;
47603;SDS011;33326;51.116;6.900;2023-04-15T12:41:38;14.05;;;4.07;;
47603;SDS011;33326;51.116;6.900;2023-04-15T12:46:41;5.72;;;3.53;;
47603;SDS011;33326;51.116;6.900;2023-04-15T12:51:44;5.60;;;3.58;;
47603;SDS011;33326;51.116;6.900;2023-04-15T12:56:46;3.53;;;3.20;;
47603;SDS011;33326;51.116;6.900;2023-04-15T13:01:49;5.63;;;3.78;;
47603;SDS011;33326;51.116;6.900;2023-04-15T13:06:54;7.63;;;4.38;;
47603;SDS011;33326;51.116;6.900;2023-04-15T13:11:56;5.05;;;4.03;;
47603;SDS011;33326;51.116;6.900;2023-04-15T13:16:58;6.10;;;4.07;;
47603;SDS011;33326;51.116;6.900;2023-04-15T13:22:03;5.50;;;4.00;;
47603;SDS011;33326;51.116;6.900;2023-04-15T13:27:06;4.38;;;3.83;;
47603;SDS011;33326;51.116;6.900;2023-04-15T13:32:07;4.90;;;3.35;;
47603;SDS011;33326;51.116;6.900;2023-04-15T13:37:11;3.97;;;3.25;;
47603;SDS011;33326;51.116;6.900;2023-04-15T13:42:13;4.07;;;3.25;;
47603;SDS011;33326;51.116;6.900;2023-04-15T13:47:15;4.55;;;3.30;;
47603;SDS011;33326;51.116;6.900;2023-04-15T13:52:18;4.50;;;3.10;;
47603;SDS011;33326;51.116;6.900;2023-04-15T13:57:20;3.28;;;2.60;;
47603;SDS011;33326;51.116;6.900;2023-04-15T14:02:22;4.35;;;2.97;;
47603;SDS011;33326;51.116;6.900;2023-04-15T14:07:27;4.25;;;3.00;;
47603;SDS011;33326;51.116;6.900;2023-04-15T14:12:29;5.32;;;3.65;;
47603;SDS011;33326;51.116;6.900;2023-04-15T14:17:32;3.92;;;3.28;;
47603;SDS011;33326;51.116;6.900;2023-04-15T14:22:35;6.53;;;3.95;;
47603;SDS011;33326;51.116;6.900;2023-04-15T14:27:37;7.82;;;4.53;;
47603;SDS011;33326;51.116;6.900;2023-04-15T14:32:39;8.27;;;5.80;;
47603;SDS011;33326;51.116;6.900;2023-04-15T14:37:42;8.32;;;6.50;;
47603;SDS011;33326;51.116;6.900;2023-04-15T14:42:44;9.18;;;7.20;;
47603;SDS011;33326;51.116;6.900;2023-04-15T14:47:46;9.50;;;6.93;;
47603;SDS011;33326;51.116;6.900;2023-04-15T14:52:50;9.65;;;7.22;;
47603;SDS011;33326;51.116;6.900;2023-04-15T14:57:51;10.20;;;6.93;;
47603;SDS011;33326;51.116;6.900;2023-04-15T15:02:53;8.32;;;5.07;;
47603;SDS011;33326;51.116;6.900;2023-04-15T15:07:57;5.97;;;5.07;;
47603;SDS011;33326;51.116;6.900;2023-04-15T15:12:58;8.32;;;4.55;;
47603;SDS011;33326;51.116;6.900;2023-04-15T15:18:00;6.82;;;4.28;;
47603;SDS011;33326;51.116;6.900;2023-04-15T15:23:03;11.38;;;5.20;;
47603;SDS011;33326;51.116;6.900;2023-04-15T15:28:05;8.60;;;6.53;;
47603;SDS011;33326;51.116;6.900;2023-04-15T15:33:08;6.78;;;5.40;;
47603;SDS011;33326;51.116;6.900;2023-04-15T15:38:11;8.20;;;6.45;;
47603;SDS011;33326;51.116;6.900;2023-04-15T15:43:13;6.18;;;5.32;;
47603;SDS011;33326;51.116;6.900;2023-04-15T15:48:15;8.75;;;6.45;;
47603;SDS011;33326;51.116;6.900;2023-04-15T15:53:18;8.93;;;6.85;;
47603;SDS011;33326;51.116;6.900;2023-04-15T15:58:23;15.77;;;11.10;;
47603;SDS011;33326;51.116;6.900;2023-04-15T16:03:25;14.68;;;10.25;;
47603;SDS011;33326;51.116;6.900;2023-04-15T16:08:28;13.02;;;9.10;;
47603;SDS011;33326;51.116;6.900;2023-04-15T16:13:30;15.02;;;9.18;;
47603;SDS011;33326;51.116;6.900;2023-04-15T16:18:32;12.48;;;6.85;;
47603;SDS011;33326;51.116;6.900;2023-04-15T16:23:35;6.20;;;4.60;;
47603;SDS011;33326;51.116;6.900;2023-04-15T16:28:37;6.13;;;3.95;;
47603;SDS011;33326;51.116;6.900;2023-04-15T16:33:40;7.43;;;4.75;;
47603;SDS011;33326;51.116;6.900;2023-04-15T16:38:43;5.72;;;3.78;;
47603;SDS011;33326;51.116;6.900;2023-04-15T16:43:47;7.22;;;4.32;;
47603;SDS011;33326;51.116;6.900;2023-04-15T16:48:49;5.20;;;3.42;;
47603;SDS011;33326;51.116;6.900;2023-04-15T16:53:53;4.00;;;3.08;;
47603;SDS011;33326;51.116;6.900;2023-04-15T16:58:55;3.90;;;3.50;;
47603;SDS011;33326;51.116;6.900;2023-04-15T17:03:56;7.35;;;4.65;;
47603;SDS011;33326;51.116;6.900;2023-04-15T17:09:00;5.82;;;3.60;;
47603;SDS011;33326;51.116;6.900;2023-04-15T17:14:02;4.95;;;3.45;;
47603;SDS011;33326;51.116;6.900;2023-04-15T17:19:04;5.78;;;3.25;;
47603;SDS011;33326;51.116;6.900;2023-04-15T17:24:07;4.60;;;3.25;;
47603;SDS011;33326;51.116;6.900;2023-04-15T17:29:09;7.03;;;3.95;;
47603;SDS011;33326;51.116;6.900;2023-04-15T17:34:11;6.97;;;3.90;;
47603;SDS011;33326;51.116;6.900;2023-04-15T17:39:14;6.25;;;4.55;;
47603;SDS011;33326;51.116;6.900;2023-04-15T17:44:16;8.20;;;4.50;;
47603;SDS011;33326;51.116;6.900;2023-04-15T17:49:19;8.82;;;4.93;;
47603;SDS011;33326;51.116;6.900;2023-04-15T17:54:22;6.03;;;4.53;;
47603;SDS011;33326;51.116;6.900;2023-04-15T17:59:24;8.75;;;5.60;;
47603;SDS011;33326;51.116;6.900;2023-04-15T18:04:26;9.90;;;6.32;;
47603;SDS011;33326;51.116;6.900;2023-04-15T18:09:29;9.60;;;5.70;;
47603;SDS011;33326;51.116;6.900;2023-04-15T18:14:31;6.97;;;3.97;;
47603;SDS011;33326;51.116;6.900;2023-04-15T18:19:33;10.57;;;4.35;;
47603;SDS011;33326;51.116;6.900;2023-04-15T18:24:37;8.70;;;4.80;;
47603;SDS011;33326;51.116;6.900;2023-04-15T18:29:38;8.75;;;4.97;;
47603;SDS011;33326;51.116;6.900;2023-04-15T18:34:41;12.07;;;4.78;;
47603;SDS011;33326;51.116;6.900;2023-04-15T18:39:45;8.02;;;5.97;;
47603;SDS011;33326;51.116;6.900;2023-04-15T18:44:47;10.05;;;6.10;;
47603;SDS011;33326;51.116;6.900;2023-04-15T18:49:49;11.05;;;6.97;;
47603;SDS011;33326;51.116;6.900;2023-04-15T18:54:53;10.27;;;7.45;;
47603;SDS011;33326;51.116;6.900;2023-04-15T18:59:54;11.88;;;8.98;;
47603;SDS011;33326;51.116;6.900;2023-04-15T19:04:56;15.23;;;9.07;;
47603;SDS011;33326;51.116;6.900;2023-04-15T19:10:02;13.40;;;8.48;;
47603;SDS011;33326;51.116;6.900;2023-04-15T19:15:05;18.52;;;8.75;;
47603;SDS011;33326;51.116;6.900;2023-04-15T19:20:08;12.93;;;8.60;;
47603;SDS011;33326;51.116;6.900;2023-04-15T19:25:11;18.48;;;10.60;;
47603;SDS011;33326;51.116;6.900;2023-04-15T19:30:13;22.08;;;12.05;;
47603;SDS011;33326;51.116;6.900;2023-04-15T19:35:15;17.75;;;12.88;;
47603;SDS011;33326;51.116;6.900;2023-04-15T19:40:19;19.88;;;14.02;;
47603;SDS011;33326;51.116;6.900;2023-04-15T19:45:21;20.95;;;14.93;;
47603;SDS011;33326;51.116;6.900;2023-04-15T19:50:23;20.02;;;14.65;;
47603;SDS011;33326;51.116;6.900;2023-04-15T19:55:28;22.70;;;16.00;;
47603;SDS011;33326;51.116;6.900;2023-04-15T20:00:30;23.65;;;17.42;;
47603;SDS011;33326;51.116;6.900;2023-04-15T20:05:32;27.38;;;18.83;;
47603;SDS011;33326;51.116;6.900;2023-04-15T20:10:36;24.67;;;17.45;;
47603;SDS011;33326;51.116;6.900;2023-04-15T20:15:38;36.80;;;20.17;;
47603;SDS011;33326;51.116;6.900;2023-04-15T20:20:40;29.30;;;19.02;;
47603;SDS011;33326;51.116;6.900;2023-04-15T20:25:43;31.40;;;20.30;;
47603;SDS011;33326;51.116;6.900;2023-04-15T20:30:45;27.33;;;15.90;;
47603;SDS011;33326;51.116;6.900;2023-04-15T20:35:47;20.63;;;14.57;;
47603;SDS011;33326;51.116;6.900;2023-04-15T20:40:50;22.75;;;14.43;;
47603;SDS011;33326;51.116;6.900;2023-04-15T20:45:53;24.33;;;15.90;;
47603;SDS011;33326;51.116;6.900;2023-04-15T20:50:55;27.35;;;18.08;;
47603;SDS011;33326;51.116;6.900;2023-04-15T20:55:59;25.88;;;16.85;;
47603;SDS011;33326;51.116;6.900;2023-04-15T21:01:01;26.27;;;18.05;;
47603;SDS011;33326;51.116;6.900;2023-04-15T21:06:02;29.77;;;17.85;;
47603;SDS011;33326;51.116;6.900;2023-04-15T21:11:06;29.65;;;18.65;;
47603;SDS011;33326;51.116;6.900;2023-04-15T21:16:08;28.17;;;18.42;;
47603;SDS011;33326;51.116;6.900;2023-04-15T21:21:10;33.97;;;21.40;;
47603;SDS011;33326;51.116;6.900;2023-04-15T21:26:13;28.58;;;19.95;;
47603;SDS011;33326;51.116;6.900;2023-04-15T21:31:15;33.28;;;22.33;;
47603;SDS011;33326;51.116;6.900;2023-04-15T21:36:17;34.13;;;22.98;;
47603;SDS011;33326;51.116;6.900;2023-04-15T21:41:21;38.33;;;23.27;;
47603;SDS011;33326;51.116;6.900;2023-04-15T21:46:24;43.58;;;25.50;;
47603;SDS011;33326;51.116;6.900;2023-04-15T21:51:26;42.85;;;26.13;;
47603;SDS011;33326;51.116;6.900;2023-04-15T21:56:29;41.92;;;26.05;;
47603;SDS011;33326;51.116;6.900;2023-04-15T22:01:32;43.80;;;28.15;;
47603;SDS011;33326;51.116;6.900;2023-04-15T22:06:34;47.00;;;29.42;;
47603;SDS011;33326;51.116;6.900;2023-04-15T22:11:37;51.63;;;30.15;;
47603;SDS011;33326;51.116;6.900;2023-04-15T22:16:39;57.90;;;34.10;;
47603;SDS011;33326;51.116;6.900;2023-04-15T22:21:41;61.88;;;33.33;;
47603;SDS011;33326;51.116;6.900;2023-04-15T22:26:44;59.47;;;34.85;;
47603;SDS011;33326;51.116;6.900;2023-04-15T22:31:46;63.13;;;36.85;;
47603;SDS011;33326;51.116;6.900;2023-04-15T22:36:48;62.38;;;36.92;;
47603;SDS011;33326;51.116;6.900;2023-04-15T22:41:52;66.45;;;35.30;;
47603;SDS011;33326;51.116;6.900;2023-04-15T22:46:54;63.13;;;35.47;;
47603;SDS011;33326;51.116;6.900;2023-04-15T22:51:55;68.13;;;35.70;;
47603;SDS011;33326;51.116;6.900;2023-04-15T22:56:59;62.30;;;34.80;;
47603;SDS011;33326;51.116;6.900;2023-04-15T23:02:01;61.83;;;35.15;;
47603;SDS011;33326;51.116;6.900;2023-04-15T23:07:03;58.83;;;34.72;;
47603;SDS011;33326;51.116;6.900;2023-04-15T23:12:06;62.67;;;36.78;;
47603;SDS011;33326;51.116;6.900;2023-04-15T23:17:08;54.65;;;33.65;;
47603;SDS011;33326;51.116;6.900;2023-04-15T23:22:10;52.38;;;32.60;;
47603;SDS011;33326;51.116;6.900;2023-04-15T23:27:13;57.25;;;32.55;;
47603;SDS011;33326;51.116;6.900;2023-04-15T23:32:16;49.72;;;30.42;;
47603;SDS011;33326;51.116;6.900;2023-04-15T23:37:18;51.88;;;30.58;;
47603;SDS011;33326;51.116;6.900;2023-04-15T23:42:21;47.17;;;28.23;;
47603;SDS011;33326;51.116;6.900;2023-04-15T23:47:23;51.67;;;30.40;;
47603;SDS011;33326;51.116;6.900;2023-04-15T23:52:25;54.33;;;33.05;;
47603;SDS011;33326;51.116;6.900;2023-04-15T23:57:28;52.65;;;31.98;;
